createdAt,value
2023-01-05T00:00:21.398Z,99.99
2023-01-05T00:05:21.278Z,99.99
2023-01-05T00:10:21.216Z,99.99
2023-01-05T00:15:21.126Z,99.99
2023-01-05T00:20:21.055Z,99.99
2023-01-05T00:25:21.077Z,99.99
2023-01-05T00:30:20.963Z,99.99
2023-01-05T00:35:20.871Z,99.99
2023-01-05T00:40:20.782Z,99.99
2023-01-05T00:45:20.767Z,99.99
2023-01-05T00:50:20.727Z,99.99
2023-01-05T00:55:20.713Z,99.88
2023-01-05T01:00:20.572Z,99.68
2023-01-05T01:05:20.486Z,99.27
2023-01-05T01:10:20.415Z,99.37
2023-01-05T01:15:20.359Z,99.68
2023-01-05T01:20:20.336Z,99.99
2023-01-05T01:25:20.231Z,99.99
2023-01-05T01:30:20.212Z,99.99
2023-01-05T01:35:20.091Z,99.99
2023-01-05T01:40:20.039Z,99.99
2023-01-05T01:45:20.015Z,99.99
2023-01-05T01:50:19.968Z,99.99
2023-01-05T01:55:19.864Z,99.99
2023-01-05T02:00:19.838Z,99.99
2023-01-05T02:05:19.710Z,99.99
2023-01-05T02:10:19.765Z,99.99
2023-01-05T02:15:19.591Z,99.99
2023-01-05T02:20:19.540Z,99.99
2023-01-05T02:25:19.488Z,99.99
2023-01-05T02:30:19.394Z,99.99
2023-01-05T02:35:19.335Z,99.99
2023-01-05T02:40:19.299Z,99.99
2023-01-05T02:45:19.239Z,99.99
2023-01-05T02:50:19.181Z,99.99
2023-01-05T02:55:19.086Z,99.99
2023-01-05T03:00:19.033Z,99.99
2023-01-05T03:05:18.959Z,99.99
2023-01-05T03:10:18.917Z,99.99
2023-01-05T03:15:18.901Z,99.99
2023-01-05T03:20:18.785Z,99.99
2023-01-05T03:25:18.726Z,99.99
2023-01-05T03:30:18.802Z,99.99
2023-01-05T03:35:18.592Z,99.99
2023-01-05T03:40:18.528Z,99.99
2023-01-05T03:45:18.567Z,99.99
2023-01-05T03:50:18.433Z,99.99
2023-01-05T03:55:18.338Z,99.99
2023-01-05T04:00:18.319Z,99.99
2023-01-05T04:05:18.274Z,99.99
2023-01-05T04:10:18.151Z,99.99
2023-01-05T04:15:18.074Z,99.99
2023-01-05T04:20:18.091Z,99.99
2023-01-05T04:25:17.937Z,99.99
2023-01-05T04:30:17.902Z,99.99
2023-01-05T04:35:17.853Z,99.99
2023-01-05T04:40:17.809Z,99.99
2023-01-05T04:45:17.687Z,99.99
2023-01-05T04:50:17.700Z,99.99
2023-01-05T04:55:17.571Z,99.99
2023-01-05T05:00:17.566Z,99.99
2023-01-05T05:05:17.458Z,99.99
2023-01-05T05:10:17.388Z,99.99
2023-01-05T05:15:17.367Z,99.99
2023-01-05T05:20:17.263Z,99.99
2023-01-05T05:25:17.199Z,99.99
2023-01-05T05:30:17.132Z,99.99
2023-01-05T05:35:17.060Z,99.99
2023-01-05T05:40:17.027Z,99.99
2023-01-05T05:45:16.982Z,99.99
2023-01-05T05:50:16.868Z,99.99
2023-01-05T05:55:16.814Z,99.99
2023-01-05T06:00:16.741Z,99.99
2023-01-05T06:05:16.689Z,99.99
2023-01-05T06:10:16.612Z,99.99
2023-01-05T06:15:16.585Z,99.99
2023-01-05T06:20:16.532Z,99.99
2023-01-05T06:25:16.759Z,99.99
2023-01-05T06:30:16.459Z,99.99
2023-01-05T06:35:16.290Z,99.99
2023-01-05T06:40:16.249Z,99.99
2023-01-05T06:45:16.186Z,99.99
2023-01-05T06:50:16.299Z,99.99
2023-01-05T06:55:16.060Z,99.99
2023-01-05T07:00:16.022Z,99.99
2023-01-05T07:05:15.935Z,99.99
2023-01-05T07:10:15.852Z,99.99
2023-01-05T07:15:15.828Z,99.99
2023-01-05T07:20:15.750Z,99.99
2023-01-05T07:25:15.672Z,99.99
2023-01-05T07:30:15.661Z,99.99
2023-01-05T07:35:15.692Z,99.99
2023-01-05T07:40:15.573Z,99.99
2023-01-05T07:45:15.530Z,99.99
2023-01-05T07:50:15.372Z,99.99
2023-01-05T07:55:15.461Z,99.99
2023-01-05T08:00:15.387Z,99.99
2023-01-05T08:05:15.227Z,99.99
2023-01-05T08:10:15.220Z,99.99
2023-01-05T08:15:15.054Z,99.99
2023-01-05T08:20:15.010Z,99.99
2023-01-05T08:25:14.911Z,99.99
2023-01-05T08:30:14.887Z,99.99
2023-01-05T08:35:14.840Z,99.99
2023-01-05T08:40:14.729Z,99.99
2023-01-05T08:45:14.780Z,99.99
2023-01-05T08:50:14.668Z,99.82
2023-01-05T08:55:14.528Z,99.10
2023-01-05T09:00:14.471Z,99.10
2023-01-05T09:05:14.396Z,98.28
2023-01-05T09:10:14.358Z,97.97
2023-01-05T09:15:14.285Z,98.22
2023-01-05T09:20:14.212Z,97.97
2023-01-05T09:25:14.142Z,97.81
2023-01-05T09:30:14.575Z,97.87
2023-01-05T09:35:14.110Z,97.30
2023-01-05T09:40:14.013Z,97.56
2023-01-05T09:45:14.016Z,97.46
2023-01-05T09:50:13.934Z,96.95
2023-01-05T09:55:13.979Z,97.25
2023-01-05T10:00:13.868Z,97.15
2023-01-05T10:05:13.859Z,97.87
2023-01-05T10:10:13.652Z,97.66
2023-01-05T10:15:13.704Z,96.84
2023-01-05T10:20:13.493Z,96.23
2023-01-05T10:25:13.443Z,96.33
2023-01-05T10:30:13.342Z,97.05
2023-01-05T10:35:34.067Z,96.64
2023-01-05T10:40:14.282Z,96.64
2023-01-05T10:45:13.152Z,96.39
2023-01-05T10:50:13.184Z,95.82
2023-01-05T10:55:13.019Z,95.47
2023-01-05T11:00:13.068Z,94.55
2023-01-05T11:05:13.094Z,92.87
2023-01-05T11:10:13.035Z,91.44
2023-01-05T11:15:12.971Z,91.64
2023-01-05T11:20:12.750Z,91.64
2023-01-05T11:25:12.639Z,91.44
2023-01-05T11:30:12.624Z,91.44
2023-01-05T11:35:12.655Z,91.44
2023-01-05T11:40:12.639Z,92.56
2023-01-05T11:45:12.498Z,91.13
2023-01-05T11:50:12.353Z,91.23
2023-01-05T11:55:12.378Z,91.44
2023-01-05T12:00:12.446Z,91.64
2023-01-05T12:05:12.137Z,91.64
2023-01-05T12:10:12.188Z,91.74
2023-01-05T12:15:12.006Z,91.74
2023-01-05T12:20:12.003Z,91.64
2023-01-05T12:25:11.911Z,91.64
2023-01-05T12:35:12.795Z,91.29
2023-01-05T12:40:11.686Z,91.09
2023-01-05T12:45:11.621Z,91.70
2023-01-05T12:50:11.549Z,91.29
2023-01-05T12:55:11.486Z,91.70
2023-01-05T13:00:11.432Z,92.52
2023-01-05T13:05:11.400Z,93.79
2023-01-05T13:10:11.407Z,95.32
2023-01-05T13:15:11.259Z,95.73
2023-01-05T13:20:11.424Z,95.98
2023-01-05T13:25:11.120Z,95.57
2023-01-05T13:30:11.040Z,96.39
2023-01-05T13:35:10.999Z,96.66
2023-01-05T13:40:11.121Z,95.44
2023-01-05T13:45:10.891Z,92.68
2023-01-05T13:50:10.812Z,92.27
2023-01-05T13:55:17.701Z,92.01
2023-01-05T14:00:12.545Z,91.50
2023-01-05T14:05:10.593Z,91.91
2023-01-05T14:10:10.532Z,92.42
2023-01-05T14:15:10.471Z,92.11
2023-01-05T14:20:10.437Z,91.80
2023-01-05T14:25:10.357Z,91.44
2023-01-05T14:30:10.279Z,90.72
2023-01-05T14:35:10.213Z,91.13
2023-01-05T14:45:10.089Z,91.58
2023-01-05T14:50:10.056Z,91.74
2023-01-05T14:55:21.825Z,92.19
2023-01-05T15:00:10.884Z,92.77
2023-01-05T15:05:10.551Z,92.87
2023-01-05T15:10:09.775Z,92.60
2023-01-05T15:15:09.736Z,92.19
2023-01-05T15:20:09.864Z,91.69
2023-01-05T15:25:09.579Z,91.99
2023-01-05T15:30:09.528Z,91.89
2023-01-05T15:35:09.459Z,91.99
2023-01-05T15:40:09.487Z,91.99
2023-01-05T15:45:09.319Z,92.50
2023-01-05T15:50:09.310Z,92.60
2023-01-05T15:55:09.255Z,93.26
2023-01-05T16:00:09.180Z,93.88
2023-01-05T16:05:09.251Z,94.59
2023-01-05T16:10:09.023Z,95.56
2023-01-05T16:15:09.045Z,96.58
2023-01-05T16:20:08.927Z,97.45
2023-01-05T16:25:08.842Z,98.27
2023-01-05T16:30:08.750Z,98.88
2023-01-05T16:35:08.681Z,99.29
2023-01-05T16:40:08.664Z,99.54
2023-01-05T16:45:08.585Z,99.85
2023-01-05T16:50:08.500Z,99.99
2023-01-05T16:55:10.640Z,99.99
2023-01-05T17:00:08.381Z,99.99
2023-01-05T17:05:08.339Z,99.99
2023-01-05T17:10:08.255Z,99.95
2023-01-05T17:15:08.290Z,99.50
2023-01-05T17:20:08.123Z,98.99
2023-01-05T17:25:09.959Z,98.62
2023-01-05T17:30:07.998Z,98.52
2023-01-05T17:35:07.940Z,98.68
2023-01-05T17:40:07.894Z,99.29
2023-01-05T17:45:07.800Z,99.99
2023-01-05T17:50:07.735Z,99.99
2023-01-05T17:55:07.678Z,99.99
2023-01-05T18:00:07.609Z,99.99
2023-01-05T18:05:07.551Z,99.99
2023-01-05T18:15:07.430Z,99.99
2023-01-05T18:20:07.356Z,99.99
2023-01-05T18:30:07.232Z,99.99
2023-01-05T18:35:09.879Z,99.99
2023-01-05T18:40:07.169Z,99.99
2023-01-05T18:45:18.775Z,99.99
2023-01-05T18:50:07.992Z,99.99
2023-01-05T18:55:06.914Z,99.99
2023-01-05T19:00:06.856Z,99.99
2023-01-05T19:05:06.815Z,99.99
2023-01-05T19:10:06.752Z,99.99
2023-01-05T19:15:06.666Z,99.99
2023-01-05T19:20:06.642Z,99.99
2023-01-05T19:25:06.533Z,99.99
2023-01-05T19:30:06.486Z,99.99
2023-01-05T19:35:06.400Z,99.99
2023-01-05T19:40:06.421Z,99.99
2023-01-05T19:45:06.274Z,99.99
2023-01-05T19:50:06.216Z,99.99
2023-01-05T19:55:06.193Z,99.99
2023-01-05T20:00:06.101Z,99.99
2023-01-05T20:05:06.029Z,99.99
2023-01-05T20:10:05.985Z,99.99
2023-01-05T20:15:05.916Z,99.99
2023-01-05T20:20:05.839Z,99.99
2023-01-05T20:25:05.797Z,99.99
2023-01-05T20:30:05.725Z,99.99
2023-01-05T20:35:05.648Z,99.99
2023-01-05T20:40:05.659Z,99.99
2023-01-05T20:45:05.518Z,99.99
2023-01-05T20:50:07.510Z,99.99
2023-01-05T20:55:05.385Z,99.99
2023-01-05T21:00:05.350Z,99.99
2023-01-05T21:05:05.272Z,99.99
2023-01-05T21:10:05.209Z,99.99
2023-01-05T21:15:05.149Z,99.99
2023-01-05T21:20:05.068Z,99.99
2023-01-05T21:25:05.006Z,99.99
2023-01-05T21:30:04.945Z,99.99
2023-01-05T21:35:04.884Z,99.99
2023-01-05T21:40:04.863Z,99.99
2023-01-05T21:45:04.755Z,99.99
2023-01-05T21:50:04.695Z,99.99
2023-01-05T21:55:04.633Z,99.99
2023-01-05T22:00:04.586Z,99.99
2023-01-05T22:05:04.501Z,99.99
2023-01-05T22:10:04.441Z,99.99
2023-01-05T22:15:04.374Z,99.99
2023-01-05T22:20:04.315Z,99.99
2023-01-05T22:25:04.257Z,99.99
2023-01-05T22:30:04.207Z,99.99
2023-01-05T22:35:04.127Z,99.99
2023-01-05T22:40:04.118Z,99.99
2023-01-05T22:45:03.995Z,99.99
2023-01-05T22:50:03.945Z,99.99
2023-01-05T22:55:03.879Z,99.99
2023-01-05T23:00:03.801Z,99.99
2023-01-05T23:05:04.216Z,99.99
2023-01-05T23:10:03.661Z,99.99
2023-01-05T23:15:03.639Z,99.99
2023-01-05T23:20:03.526Z,99.99
2023-01-05T23:25:03.474Z,99.99
2023-01-05T23:30:03.390Z,99.99
2023-01-05T23:35:03.347Z,99.99
2023-01-05T23:40:03.325Z,99.99
2023-01-05T23:45:03.201Z,99.99
2023-01-05T23:50:03.135Z,99.99
2023-01-05T23:55:03.100Z,99.99
